sensor_id;sensor_type;location;lat;lon;timestamp;P1;durP1;ratioP1;P2;durP2;ratioP2
67819;SDS011;54618;52.018;5.576;2022-09-09T00:00:22;2.35;;;0.80;;
67819;SDS011;54618;52.018;5.576;2022-09-09T00:02:55;1.58;;;0.75;;
67819;SDS011;54618;52.018;5.576;2022-09-09T00:08:18;2.38;;;0.80;;
67819;SDS011;54618;52.018;5.576;2022-09-09T00:10:47;2.50;;;0.80;;
67819;SDS011;54618;52.018;5.576;2022-09-09T00:13:37;1.65;;;0.70;;
67819;SDS011;54618;52.018;5.576;2022-09-09T00:16:14;2.17;;;1.00;;
67819;SDS011;54618;52.018;5.576;2022-09-09T00:24:27;2.35;;;1.13;;
67819;SDS011;54618;52.018;5.576;2022-09-09T00:27:09;1.88;;;0.75;;
67819;SDS011;54618;52.018;5.576;2022-09-09T00:29:48;3.47;;;0.80;;
67819;SDS011;54618;52.018;5.576;2022-09-09T00:32:21;2.35;;;0.88;;
67819;SDS011;54618;52.018;5.576;2022-09-09T00:34:53;1.65;;;0.88;;
67819;SDS011;54618;52.018;5.576;2022-09-09T00:37:21;2.20;;;0.90;;
67819;SDS011;54618;52.018;5.576;2022-09-09T00:39:50;2.95;;;0.90;;
67819;SDS011;54618;52.018;5.576;2022-09-09T00:45:24;1.35;;;0.75;;
67819;SDS011;54618;52.018;5.576;2022-09-09T00:47:59;1.25;;;0.80;;
67819;SDS011;54618;52.018;5.576;2022-09-09T00:53:29;1.67;;;0.80;;
67819;SDS011;54618;52.018;5.576;2022-09-09T00:59:07;2.05;;;0.80;;
67819;SDS011;54618;52.018;5.576;2022-09-09T01:01:35;0.98;;;0.77;;
67819;SDS011;54618;52.018;5.576;2022-09-09T01:04:00;3.53;;;1.25;;
67819;SDS011;54618;52.018;5.576;2022-09-09T01:06:34;2.17;;;0.90;;
67819;SDS011;54618;52.018;5.576;2022-09-09T01:14:50;2.22;;;0.93;;
67819;SDS011;54618;52.018;5.576;2022-09-09T01:17:23;3.63;;;0.90;;
67819;SDS011;54618;52.018;5.576;2022-09-09T01:28:16;2.97;;;0.80;;
67819;SDS011;54618;52.018;5.576;2022-09-09T01:30:46;1.10;;;0.70;;
67819;SDS011;54618;52.018;5.576;2022-09-09T01:33:13;1.80;;;0.70;;
67819;SDS011;54618;52.018;5.576;2022-09-09T01:38:36;3.63;;;0.95;;
67819;SDS011;54618;52.018;5.576;2022-09-09T01:41:02;2.53;;;0.90;;
67819;SDS011;54618;52.018;5.576;2022-09-09T01:43:29;1.73;;;0.75;;
67819;SDS011;54618;52.018;5.576;2022-09-09T01:45:56;1.55;;;0.70;;
67819;SDS011;54618;52.018;5.576;2022-09-09T01:48:25;1.50;;;0.70;;
67819;SDS011;54618;52.018;5.576;2022-09-09T01:50:52;2.03;;;0.75;;
67819;SDS011;54618;52.018;5.576;2022-09-09T01:53:18;1.23;;;0.80;;
67819;SDS011;54618;52.018;5.576;2022-09-09T02:01:27;2.25;;;0.90;;
67819;SDS011;54618;52.018;5.576;2022-09-09T02:04:07;2.45;;;0.90;;
67819;SDS011;54618;52.018;5.576;2022-09-09T02:06:51;1.23;;;0.70;;
67819;SDS011;54618;52.018;5.576;2022-09-09T02:09:21;2.05;;;0.88;;
67819;SDS011;54618;52.018;5.576;2022-09-09T02:11:48;1.80;;;0.82;;
67819;SDS011;54618;52.018;5.576;2022-09-09T02:14:25;3.03;;;0.90;;
67819;SDS011;54618;52.018;5.576;2022-09-09T02:17:07;2.25;;;0.90;;
67819;SDS011;54618;52.018;5.576;2022-09-09T02:19:36;1.53;;;0.80;;
67819;SDS011;54618;52.018;5.576;2022-09-09T02:22:15;3.20;;;0.90;;
67819;SDS011;54618;52.018;5.576;2022-09-09T02:24:42;1.85;;;0.90;;
67819;SDS011;54618;52.018;5.576;2022-09-09T02:27:11;1.88;;;0.90;;
67819;SDS011;54618;52.018;5.576;2022-09-09T02:29:40;1.73;;;0.80;;
67819;SDS011;54618;52.018;5.576;2022-09-09T02:32:08;1.50;;;0.90;;
67819;SDS011;54618;52.018;5.576;2022-09-09T02:34:39;2.05;;;0.70;;
67819;SDS011;54618;52.018;5.576;2022-09-09T02:37:09;1.77;;;0.82;;
67819;SDS011;54618;52.018;5.576;2022-09-09T02:39:37;1.67;;;0.85;;
67819;SDS011;54618;52.018;5.576;2022-09-09T02:42:05;1.67;;;0.73;;
67819;SDS011;54618;52.018;5.576;2022-09-09T02:44:33;1.58;;;0.65;;
67819;SDS011;54618;52.018;5.576;2022-09-09T02:47:07;1.88;;;0.80;;
67819;SDS011;54618;52.018;5.576;2022-09-09T02:50:04;1.90;;;0.70;;
67819;SDS011;54618;52.018;5.576;2022-09-09T02:58:05;2.10;;;0.93;;
67819;SDS011;54618;52.018;5.576;2022-09-09T03:00:34;2.47;;;0.80;;
67819;SDS011;54618;52.018;5.576;2022-09-09T03:03:04;1.30;;;0.60;;
67819;SDS011;54618;52.018;5.576;2022-09-09T03:05:31;1.92;;;0.80;;
67819;SDS011;54618;52.018;5.576;2022-09-09T03:07:57;2.72;;;0.85;;
67819;SDS011;54618;52.018;5.576;2022-09-09T03:10:23;1.20;;;0.60;;
67819;SDS011;54618;52.018;5.576;2022-09-09T03:12:49;1.83;;;0.70;;
67819;SDS011;54618;52.018;5.576;2022-09-09T03:15:15;2.80;;;0.90;;
67819;SDS011;54618;52.018;5.576;2022-09-09T03:17:41;1.60;;;0.70;;
67819;SDS011;54618;52.018;5.576;2022-09-09T03:20:07;1.52;;;0.77;;
67819;SDS011;54618;52.018;5.576;2022-09-09T03:22:33;1.50;;;0.77;;
67819;SDS011;54618;52.018;5.576;2022-09-09T03:24:59;4.55;;;0.90;;
67819;SDS011;54618;52.018;5.576;2022-09-09T03:27:25;1.50;;;0.80;;
67819;SDS011;54618;52.018;5.576;2022-09-09T03:29:50;1.50;;;0.70;;
67819;SDS011;54618;52.018;5.576;2022-09-09T03:32:16;2.00;;;0.70;;
67819;SDS011;54618;52.018;5.576;2022-09-09T03:34:42;1.50;;;0.70;;
67819;SDS011;54618;52.018;5.576;2022-09-09T03:37:08;4.60;;;0.80;;
67819;SDS011;54618;52.018;5.576;2022-09-09T03:39:34;0.82;;;0.60;;
67819;SDS011;54618;52.018;5.576;2022-09-09T03:42:00;2.47;;;0.70;;
67819;SDS011;54618;52.018;5.576;2022-09-09T03:44:28;0.93;;;0.70;;
67819;SDS011;54618;52.018;5.576;2022-09-09T03:46:55;1.73;;;0.80;;
67819;SDS011;54618;52.018;5.576;2022-09-09T03:49:21;3.08;;;0.80;;
67819;SDS011;54618;52.018;5.576;2022-09-09T03:51:47;2.63;;;0.88;;
67819;SDS011;54618;52.018;5.576;2022-09-09T03:54:13;2.25;;;0.80;;
67819;SDS011;54618;52.018;5.576;2022-09-09T03:56:39;1.42;;;0.68;;
67819;SDS011;54618;52.018;5.576;2022-09-09T03:59:06;1.38;;;0.70;;
67819;SDS011;54618;52.018;5.576;2022-09-09T04:01:33;1.52;;;0.80;;
67819;SDS011;54618;52.018;5.576;2022-09-09T04:03:59;1.02;;;0.70;;
67819;SDS011;54618;52.018;5.576;2022-09-09T04:06:27;2.28;;;0.90;;
67819;SDS011;54618;52.018;5.576;2022-09-09T04:08:52;2.55;;;0.70;;
67819;SDS011;54618;52.018;5.576;2022-09-09T04:11:18;2.10;;;0.80;;
67819;SDS011;54618;52.018;5.576;2022-09-09T04:13:44;1.30;;;0.70;;
67819;SDS011;54618;52.018;5.576;2022-09-09T04:16:11;2.03;;;0.80;;
67819;SDS011;54618;52.018;5.576;2022-09-09T04:18:40;2.67;;;0.77;;
67819;SDS011;54618;52.018;5.576;2022-09-09T04:21:06;2.78;;;0.80;;
67819;SDS011;54618;52.018;5.576;2022-09-09T04:23:32;2.40;;;0.70;;
67819;SDS011;54618;52.018;5.576;2022-09-09T04:25:59;2.00;;;0.80;;
67819;SDS011;54618;52.018;5.576;2022-09-09T04:28:27;2.55;;;0.82;;
67819;SDS011;54618;52.018;5.576;2022-09-09T04:30:57;1.50;;;0.70;;
67819;SDS011;54618;52.018;5.576;2022-09-09T04:33:49;3.80;;;1.00;;
67819;SDS011;54618;52.018;5.576;2022-09-09T04:36:15;2.50;;;0.70;;
67819;SDS011;54618;52.018;5.576;2022-09-09T04:38:43;1.92;;;0.73;;
67819;SDS011;54618;52.018;5.576;2022-09-09T04:41:09;1.70;;;0.73;;
67819;SDS011;54618;52.018;5.576;2022-09-09T04:43:36;2.63;;;1.23;;
67819;SDS011;54618;52.018;5.576;2022-09-09T04:46:02;1.60;;;0.60;;
67819;SDS011;54618;52.018;5.576;2022-09-09T04:48:28;5.68;;;0.75;;
67819;SDS011;54618;52.018;5.576;2022-09-09T04:50:55;1.30;;;0.80;;
67819;SDS011;54618;52.018;5.576;2022-09-09T04:53:24;1.98;;;0.90;;
67819;SDS011;54618;52.018;5.576;2022-09-09T04:55:50;2.45;;;0.77;;
67819;SDS011;54618;52.018;5.576;2022-09-09T04:58:16;3.75;;;0.90;;
67819;SDS011;54618;52.018;5.576;2022-09-09T05:00:43;2.38;;;0.90;;
67819;SDS011;54618;52.018;5.576;2022-09-09T05:03:09;1.38;;;0.73;;
67819;SDS011;54618;52.018;5.576;2022-09-09T05:05:35;1.25;;;0.68;;
67819;SDS011;54618;52.018;5.576;2022-09-09T05:08:04;2.70;;;1.15;;
67819;SDS011;54618;52.018;5.576;2022-09-09T05:10:31;1.48;;;0.70;;
67819;SDS011;54618;52.018;5.576;2022-09-09T05:12:58;2.00;;;0.80;;
67819;SDS011;54618;52.018;5.576;2022-09-09T05:15:24;1.63;;;0.60;;
67819;SDS011;54618;52.018;5.576;2022-09-09T05:17:49;2.58;;;0.80;;
67819;SDS011;54618;52.018;5.576;2022-09-09T05:20:17;2.00;;;0.80;;
67819;SDS011;54618;52.018;5.576;2022-09-09T05:22:43;2.08;;;0.73;;
67819;SDS011;54618;52.018;5.576;2022-09-09T05:25:09;3.25;;;0.85;;
67819;SDS011;54618;52.018;5.576;2022-09-09T05:27:35;2.40;;;0.70;;
67819;SDS011;54618;52.018;5.576;2022-09-09T05:30:00;2.45;;;0.80;;
67819;SDS011;54618;52.018;5.576;2022-09-09T05:32:26;1.75;;;0.75;;
67819;SDS011;54618;52.018;5.576;2022-09-09T05:34:52;3.58;;;0.90;;
67819;SDS011;54618;52.018;5.576;2022-09-09T05:37:18;4.40;;;0.85;;
67819;SDS011;54618;52.018;5.576;2022-09-09T05:39:44;3.63;;;0.90;;
67819;SDS011;54618;52.018;5.576;2022-09-09T05:42:10;1.58;;;0.60;;
67819;SDS011;54618;52.018;5.576;2022-09-09T05:44:36;2.55;;;0.80;;
67819;SDS011;54618;52.018;5.576;2022-09-09T05:47:02;0.98;;;0.60;;
67819;SDS011;54618;52.018;5.576;2022-09-09T05:49:27;1.45;;;0.60;;
67819;SDS011;54618;52.018;5.576;2022-09-09T05:51:53;1.15;;;0.70;;
67819;SDS011;54618;52.018;5.576;2022-09-09T05:54:18;2.40;;;0.70;;
67819;SDS011;54618;52.018;5.576;2022-09-09T05:56:44;2.60;;;0.80;;
67819;SDS011;54618;52.018;5.576;2022-09-09T05:59:10;1.63;;;0.70;;
67819;SDS011;54618;52.018;5.576;2022-09-09T06:01:36;2.65;;;0.77;;
67819;SDS011;54618;52.018;5.576;2022-09-09T06:04:05;2.83;;;0.80;;
67819;SDS011;54618;52.018;5.576;2022-09-09T06:06:32;4.40;;;0.90;;
67819;SDS011;54618;52.018;5.576;2022-09-09T06:09:02;3.35;;;0.90;;
67819;SDS011;54618;52.018;5.576;2022-09-09T06:11:31;2.07;;;0.77;;
67819;SDS011;54618;52.018;5.576;2022-09-09T06:13:57;1.65;;;0.70;;
67819;SDS011;54618;52.018;5.576;2022-09-09T06:16:25;2.30;;;0.70;;
67819;SDS011;54618;52.018;5.576;2022-09-09T06:18:52;2.22;;;0.98;;
67819;SDS011;54618;52.018;5.576;2022-09-09T06:21:20;2.88;;;0.73;;
67819;SDS011;54618;52.018;5.576;2022-09-09T06:23:47;3.05;;;0.73;;
67819;SDS011;54618;52.018;5.576;2022-09-09T06:26:14;1.80;;;0.70;;
67819;SDS011;54618;52.018;5.576;2022-09-09T06:28:45;2.15;;;0.70;;
67819;SDS011;54618;52.018;5.576;2022-09-09T06:31:13;1.20;;;0.55;;
67819;SDS011;54618;52.018;5.576;2022-09-09T06:33:42;2.15;;;0.82;;
67819;SDS011;54618;52.018;5.576;2022-09-09T06:36:16;2.20;;;0.70;;
67819;SDS011;54618;52.018;5.576;2022-09-09T06:38:46;2.10;;;0.75;;
67819;SDS011;54618;52.018;5.576;2022-09-09T06:41:12;3.40;;;0.77;;
67819;SDS011;54618;52.018;5.576;2022-09-09T06:43:40;3.90;;;0.88;;
67819;SDS011;54618;52.018;5.576;2022-09-09T06:46:07;3.15;;;0.80;;
67819;SDS011;54618;52.018;5.576;2022-09-09T06:48:35;3.78;;;0.90;;
67819;SDS011;54618;52.018;5.576;2022-09-09T06:53:30;2.70;;;0.80;;
67819;SDS011;54618;52.018;5.576;2022-09-09T06:55:58;2.15;;;0.80;;
67819;SDS011;54618;52.018;5.576;2022-09-09T06:58:27;2.80;;;0.90;;
67819;SDS011;54618;52.018;5.576;2022-09-09T07:01:06;3.35;;;0.95;;
67819;SDS011;54618;52.018;5.576;2022-09-09T07:03:32;4.22;;;0.80;;
67819;SDS011;54618;52.018;5.576;2022-09-09T07:05:59;3.97;;;0.80;;
67819;SDS011;54618;52.018;5.576;2022-09-09T07:08:25;2.55;;;0.70;;
67819;SDS011;54618;52.018;5.576;2022-09-09T07:10:51;3.13;;;0.70;;
67819;SDS011;54618;52.018;5.576;2022-09-09T07:13:24;1.55;;;0.75;;
67819;SDS011;54618;52.018;5.576;2022-09-09T07:15:50;2.25;;;0.90;;
67819;SDS011;54618;52.018;5.576;2022-09-09T07:18:17;2.28;;;0.60;;
67819;SDS011;54618;52.018;5.576;2022-09-09T07:20:42;2.15;;;0.88;;
67819;SDS011;54618;52.018;5.576;2022-09-09T07:23:08;1.90;;;0.75;;
67819;SDS011;54618;52.018;5.576;2022-09-09T07:25:33;2.70;;;1.00;;
67819;SDS011;54618;52.018;5.576;2022-09-09T07:27:59;3.42;;;0.88;;
67819;SDS011;54618;52.018;5.576;2022-09-09T07:30:25;4.72;;;1.17;;
67819;SDS011;54618;52.018;5.576;2022-09-09T07:32:51;2.45;;;0.80;;
67819;SDS011;54618;52.018;5.576;2022-09-09T07:35:17;4.00;;;0.80;;
67819;SDS011;54618;52.018;5.576;2022-09-09T07:37:42;1.98;;;0.70;;
67819;SDS011;54618;52.018;5.576;2022-09-09T07:40:08;2.90;;;0.70;;
67819;SDS011;54618;52.018;5.576;2022-09-09T07:42:35;3.00;;;0.70;;
67819;SDS011;54618;52.018;5.576;2022-09-09T07:45:02;2.40;;;0.85;;
67819;SDS011;54618;52.018;5.576;2022-09-09T07:47:29;4.10;;;0.70;;
67819;SDS011;54618;52.018;5.576;2022-09-09T07:49:54;3.67;;;0.82;;
67819;SDS011;54618;52.018;5.576;2022-09-09T07:52:21;2.08;;;0.90;;
67819;SDS011;54618;52.018;5.576;2022-09-09T07:54:46;2.50;;;0.90;;
67819;SDS011;54618;52.018;5.576;2022-09-09T07:57:12;3.33;;;0.68;;
67819;SDS011;54618;52.018;5.576;2022-09-09T07:59:38;3.05;;;0.98;;
67819;SDS011;54618;52.018;5.576;2022-09-09T08:02:03;4.07;;;0.85;;
67819;SDS011;54618;52.018;5.576;2022-09-09T08:04:29;4.50;;;0.90;;
67819;SDS011;54618;52.018;5.576;2022-09-09T08:06:56;2.65;;;0.77;;
67819;SDS011;54618;52.018;5.576;2022-09-09T08:09:23;4.22;;;0.88;;
67819;SDS011;54618;52.018;5.576;2022-09-09T08:11:51;2.97;;;0.70;;
67819;SDS011;54618;52.018;5.576;2022-09-09T08:14:17;2.45;;;0.80;;
67819;SDS011;54618;52.018;5.576;2022-09-09T08:16:44;4.03;;;0.90;;
67819;SDS011;54618;52.018;5.576;2022-09-09T08:19:12;3.55;;;0.95;;
67819;SDS011;54618;52.018;5.576;2022-09-09T08:21:40;2.95;;;0.90;;
67819;SDS011;54618;52.018;5.576;2022-09-09T08:24:07;2.50;;;0.70;;
67819;SDS011;54618;52.018;5.576;2022-09-09T08:26:36;3.42;;;0.90;;
67819;SDS011;54618;52.018;5.576;2022-09-09T08:29:06;3.92;;;1.00;;
67819;SDS011;54618;52.018;5.576;2022-09-09T08:31:36;3.20;;;0.90;;
67819;SDS011;54618;52.018;5.576;2022-09-09T08:34:06;5.07;;;0.88;;
67819;SDS011;54618;52.018;5.576;2022-09-09T08:36:34;4.25;;;1.10;;
67819;SDS011;54618;52.018;5.576;2022-09-09T08:39:02;3.35;;;0.80;;
67819;SDS011;54618;52.018;5.576;2022-09-09T08:50:12;3.28;;;0.88;;
67819;SDS011;54618;52.018;5.576;2022-09-09T08:55:31;2.15;;;0.73;;
67819;SDS011;54618;52.018;5.576;2022-09-09T08:58:09;5.00;;;1.00;;
67819;SDS011;54618;52.018;5.576;2022-09-09T09:03:30;5.55;;;1.00;;
67819;SDS011;54618;52.018;5.576;2022-09-09T09:11:21;3.90;;;1.00;;
67819;SDS011;54618;52.018;5.576;2022-09-09T09:13:58;4.03;;;0.90;;
67819;SDS011;54618;52.018;5.576;2022-09-09T09:16:39;2.85;;;0.75;;
67819;SDS011;54618;52.018;5.576;2022-09-09T09:19:15;2.47;;;0.98;;
67819;SDS011;54618;52.018;5.576;2022-09-09T09:21:43;4.00;;;0.90;;
67819;SDS011;54618;52.018;5.576;2022-09-09T09:24:24;4.75;;;1.10;;
67819;SDS011;54618;52.018;5.576;2022-09-09T09:27:08;2.55;;;0.90;;
67819;SDS011;54618;52.018;5.576;2022-09-09T09:29:38;4.10;;;0.90;;
67819;SDS011;54618;52.018;5.576;2022-09-09T09:32:08;2.50;;;0.82;;
67819;SDS011;54618;52.018;5.576;2022-09-09T09:34:39;2.75;;;1.20;;
67819;SDS011;54618;52.018;5.576;2022-09-09T09:37:26;5.22;;;0.95;;
67819;SDS011;54618;52.018;5.576;2022-09-09T09:39:54;3.47;;;1.02;;
67819;SDS011;54618;52.018;5.576;2022-09-09T09:42:20;2.78;;;0.98;;
67819;SDS011;54618;52.018;5.576;2022-09-09T09:44:45;2.13;;;0.95;;
67819;SDS011;54618;52.018;5.576;2022-09-09T09:47:13;5.38;;;1.40;;
67819;SDS011;54618;52.018;5.576;2022-09-09T09:49:59;2.53;;;1.10;;
67819;SDS011;54618;52.018;5.576;2022-09-09T09:52:26;4.82;;;1.17;;
67819;SDS011;54618;52.018;5.576;2022-09-09T09:54:56;3.90;;;0.98;;
67819;SDS011;54618;52.018;5.576;2022-09-09T09:57:25;5.63;;;1.20;;
67819;SDS011;54618;52.018;5.576;2022-09-09T10:02:38;3.47;;;0.90;;
67819;SDS011;54618;52.018;5.576;2022-09-09T10:05:09;2.95;;;1.00;;
67819;SDS011;54618;52.018;5.576;2022-09-09T10:07:40;3.35;;;1.00;;
67819;SDS011;54618;52.018;5.576;2022-09-09T10:10:07;5.95;;;1.23;;
67819;SDS011;54618;52.018;5.576;2022-09-09T10:21:06;2.30;;;1.02;;
67819;SDS011;54618;52.018;5.576;2022-09-09T10:29:15;5.18;;;0.90;;
67819;SDS011;54618;52.018;5.576;2022-09-09T10:31:52;3.40;;;1.00;;
67819;SDS011;54618;52.018;5.576;2022-09-09T10:42:50;4.68;;;1.23;;
67819;SDS011;54618;52.018;5.576;2022-09-09T10:48:05;5.32;;;1.20;;
67819;SDS011;54618;52.018;5.576;2022-09-09T10:54:19;5.35;;;1.15;;
67819;SDS011;54618;52.018;5.576;2022-09-09T10:56:58;3.55;;;1.10;;
67819;SDS011;54618;52.018;5.576;2022-09-09T10:59:32;4.30;;;1.23;;
67819;SDS011;54618;52.018;5.576;2022-09-09T11:02:16;3.60;;;1.00;;
67819;SDS011;54618;52.018;5.576;2022-09-09T11:04:55;4.05;;;0.90;;
67819;SDS011;54618;52.018;5.576;2022-09-09T11:07:38;3.72;;;0.90;;
67819;SDS011;54618;52.018;5.576;2022-09-09T11:10:30;4.80;;;1.45;;
67819;SDS011;54618;52.018;5.576;2022-09-09T11:13:20;4.05;;;1.00;;
67819;SDS011;54618;52.018;5.576;2022-09-09T11:19:05;3.60;;;1.15;;
67819;SDS011;54618;52.018;5.576;2022-09-09T11:21:46;5.15;;;1.00;;
67819;SDS011;54618;52.018;5.576;2022-09-09T11:24:16;3.80;;;1.10;;
67819;SDS011;54618;52.018;5.576;2022-09-09T11:27:06;5.75;;;1.33;;
67819;SDS011;54618;52.018;5.576;2022-09-09T11:40:46;7.68;;;1.35;;
67819;SDS011;54618;52.018;5.576;2022-09-09T11:44:08;5.60;;;1.20;;
67819;SDS011;54618;52.018;5.576;2022-09-09T11:46:09;4.47;;;1.30;;
67819;SDS011;54618;52.018;5.576;2022-09-09T11:48:40;4.78;;;1.35;;
67819;SDS011;54618;52.018;5.576;2022-09-09T11:56:34;5.60;;;1.45;;
67819;SDS011;54618;52.018;5.576;2022-09-09T12:02:08;5.53;;;1.23;;
67819;SDS011;54618;52.018;5.576;2022-09-09T12:04:55;5.28;;;1.00;;
67819;SDS011;54618;52.018;5.576;2022-09-09T12:07:35;3.15;;;0.98;;
67819;SDS011;54618;52.018;5.576;2022-09-09T12:10:19;6.88;;;1.30;;
67819;SDS011;54618;52.018;5.576;2022-09-09T12:12:48;5.28;;;1.40;;
67819;SDS011;54618;52.018;5.576;2022-09-09T12:15:18;7.40;;;1.20;;
67819;SDS011;54618;52.018;5.576;2022-09-09T12:17:51;5.20;;;1.20;;
67819;SDS011;54618;52.018;5.576;2022-09-09T12:20:20;3.75;;;1.25;;
67819;SDS011;54618;52.018;5.576;2022-09-09T12:25:53;3.40;;;1.20;;
67819;SDS011;54618;52.018;5.576;2022-09-09T12:28:40;4.72;;;1.30;;
67819;SDS011;54618;52.018;5.576;2022-09-09T12:31:15;3.88;;;1.10;;
67819;SDS011;54618;52.018;5.576;2022-09-09T12:33:45;3.53;;;1.00;;
67819;SDS011;54618;52.018;5.576;2022-09-09T12:36:13;4.80;;;1.33;;
67819;SDS011;54618;52.018;5.576;2022-09-09T12:38:43;4.20;;;1.38;;
67819;SDS011;54618;52.018;5.576;2022-09-09T12:41:22;5.90;;;1.35;;
67819;SDS011;54618;52.018;5.576;2022-09-09T12:43:49;2.83;;;1.15;;
67819;SDS011;54618;52.018;5.576;2022-09-09T12:46:24;2.88;;;1.17;;
67819;SDS011;54618;52.018;5.576;2022-09-09T12:49:01;3.55;;;1.10;;
67819;SDS011;54618;52.018;5.576;2022-09-09T12:51:29;4.07;;;1.13;;
67819;SDS011;54618;52.018;5.576;2022-09-09T12:53:56;4.47;;;1.17;;
67819;SDS011;54618;52.018;5.576;2022-09-09T12:56:27;2.50;;;1.00;;
67819;SDS011;54618;52.018;5.576;2022-09-09T12:58:57;3.65;;;1.10;;
67819;SDS011;54618;52.018;5.576;2022-09-09T13:01:33;3.38;;;0.95;;
67819;SDS011;54618;52.018;5.576;2022-09-09T13:03:58;3.38;;;1.10;;
67819;SDS011;54618;52.018;5.576;2022-09-09T13:06:26;4.63;;;1.48;;
67819;SDS011;54618;52.018;5.576;2022-09-09T13:08:57;5.22;;;1.25;;
67819;SDS011;54618;52.018;5.576;2022-09-09T13:13:51;3.88;;;1.10;;
67819;SDS011;54618;52.018;5.576;2022-09-09T13:16:20;3.08;;;0.95;;
67819;SDS011;54618;52.018;5.576;2022-09-09T13:18:57;2.97;;;1.10;;
67819;SDS011;54618;52.018;5.576;2022-09-09T13:21:34;2.90;;;1.00;;
67819;SDS011;54618;52.018;5.576;2022-09-09T13:24:02;4.55;;;1.38;;
67819;SDS011;54618;52.018;5.576;2022-09-09T13:26:32;3.00;;;1.00;;
67819;SDS011;54618;52.018;5.576;2022-09-09T13:29:17;3.67;;;1.17;;
67819;SDS011;54618;52.018;5.576;2022-09-09T13:31:44;3.20;;;1.13;;
67819;SDS011;54618;52.018;5.576;2022-09-09T13:34:22;2.78;;;1.00;;
67819;SDS011;54618;52.018;5.576;2022-09-09T13:36:56;5.28;;;1.20;;
67819;SDS011;54618;52.018;5.576;2022-09-09T13:39:27;3.33;;;1.00;;
67819;SDS011;54618;52.018;5.576;2022-09-09T13:41:53;3.63;;;1.05;;
67819;SDS011;54618;52.018;5.576;2022-09-09T13:44:22;2.80;;;1.10;;
67819;SDS011;54618;52.018;5.576;2022-09-09T13:47:04;3.92;;;1.38;;
67819;SDS011;54618;52.018;5.576;2022-09-09T13:49:44;4.20;;;1.20;;
67819;SDS011;54618;52.018;5.576;2022-09-09T13:52:12;4.95;;;1.05;;
67819;SDS011;54618;52.018;5.576;2022-09-09T13:54:41;2.97;;;1.13;;
67819;SDS011;54618;52.018;5.576;2022-09-09T13:57:14;4.10;;;1.30;;
67819;SDS011;54618;52.018;5.576;2022-09-09T13:59:43;5.60;;;1.17;;
67819;SDS011;54618;52.018;5.576;2022-09-09T14:02:12;4.28;;;1.33;;
67819;SDS011;54618;52.018;5.576;2022-09-09T14:04:38;3.92;;;1.35;;
67819;SDS011;54618;52.018;5.576;2022-09-09T14:07:07;3.45;;;1.00;;
67819;SDS011;54618;52.018;5.576;2022-09-09T14:09:36;2.53;;;1.20;;
67819;SDS011;54618;52.018;5.576;2022-09-09T14:12:01;2.17;;;0.80;;
67819;SDS011;54618;52.018;5.576;2022-09-09T14:14:27;3.88;;;1.10;;
67819;SDS011;54618;52.018;5.576;2022-09-09T14:16:53;2.97;;;1.00;;
67819;SDS011;54618;52.018;5.576;2022-09-09T14:19:18;3.25;;;1.10;;
67819;SDS011;54618;52.018;5.576;2022-09-09T14:21:45;2.22;;;1.00;;
67819;SDS011;54618;52.018;5.576;2022-09-09T14:24:11;5.18;;;1.23;;
67819;SDS011;54618;52.018;5.576;2022-09-09T14:26:37;2.90;;;1.10;;
67819;SDS011;54618;52.018;5.576;2022-09-09T14:29:03;3.22;;;1.10;;
67819;SDS011;54618;52.018;5.576;2022-09-09T14:31:28;4.10;;;1.10;;
67819;SDS011;54618;52.018;5.576;2022-09-09T14:33:54;3.13;;;1.15;;
67819;SDS011;54618;52.018;5.576;2022-09-09T14:36:20;2.67;;;1.10;;
67819;SDS011;54618;52.018;5.576;2022-09-09T14:38:45;3.38;;;1.00;;
67819;SDS011;54618;52.018;5.576;2022-09-09T14:41:12;3.60;;;1.35;;
67819;SDS011;54618;52.018;5.576;2022-09-09T14:43:41;2.42;;;0.95;;
67819;SDS011;54618;52.018;5.576;2022-09-09T14:46:08;2.85;;;1.10;;
67819;SDS011;54618;52.018;5.576;2022-09-09T14:48:36;2.80;;;1.17;;
67819;SDS011;54618;52.018;5.576;2022-09-09T14:51:08;4.82;;;1.33;;
67819;SDS011;54618;52.018;5.576;2022-09-09T14:53:40;2.88;;;0.93;;
67819;SDS011;54618;52.018;5.576;2022-09-09T14:56:16;4.72;;;1.35;;
67819;SDS011;54618;52.018;5.576;2022-09-09T14:58:43;2.67;;;0.93;;
67819;SDS011;54618;52.018;5.576;2022-09-09T15:01:13;1.77;;;0.98;;
67819;SDS011;54618;52.018;5.576;2022-09-09T15:03:41;3.38;;;1.30;;
67819;SDS011;54618;52.018;5.576;2022-09-09T15:06:09;4.35;;;1.40;;
67819;SDS011;54618;52.018;5.576;2022-09-09T15:08:40;4.55;;;1.23;;
67819;SDS011;54618;52.018;5.576;2022-09-09T15:11:09;3.25;;;1.10;;
67819;SDS011;54618;52.018;5.576;2022-09-09T15:13:36;2.83;;;1.00;;
67819;SDS011;54618;52.018;5.576;2022-09-09T15:16:04;3.70;;;1.20;;
67819;SDS011;54618;52.018;5.576;2022-09-09T15:18:31;2.53;;;0.95;;
67819;SDS011;54618;52.018;5.576;2022-09-09T15:20:58;3.45;;;1.15;;
67819;SDS011;54618;52.018;5.576;2022-09-09T15:23:25;3.05;;;1.15;;
67819;SDS011;54618;52.018;5.576;2022-09-09T15:25:51;2.35;;;0.90;;
67819;SDS011;54618;52.018;5.576;2022-09-09T15:28:18;1.88;;;1.05;;
67819;SDS011;54618;52.018;5.576;2022-09-09T15:30:43;3.10;;;1.13;;
67819;SDS011;54618;52.018;5.576;2022-09-09T15:33:11;2.83;;;1.20;;
67819;SDS011;54618;52.018;5.576;2022-09-09T15:35:37;4.38;;;1.10;;
67819;SDS011;54618;52.018;5.576;2022-09-09T15:38:02;3.83;;;1.02;;
67819;SDS011;54618;52.018;5.576;2022-09-09T15:40:30;4.53;;;1.30;;
67819;SDS011;54618;52.018;5.576;2022-09-09T15:42:57;2.50;;;1.10;;
67819;SDS011;54618;52.018;5.576;2022-09-09T15:45:23;4.93;;;1.33;;
67819;SDS011;54618;52.018;5.576;2022-09-09T15:47:49;3.92;;;1.17;;
67819;SDS011;54618;52.018;5.576;2022-09-09T15:50:15;3.22;;;1.10;;
67819;SDS011;54618;52.018;5.576;2022-09-09T15:52:42;4.13;;;1.15;;
67819;SDS011;54618;52.018;5.576;2022-09-09T15:55:07;3.63;;;1.20;;
67819;SDS011;54618;52.018;5.576;2022-09-09T15:57:33;3.70;;;1.20;;
67819;SDS011;54618;52.018;5.576;2022-09-09T16:00:00;4.72;;;1.20;;
67819;SDS011;54618;52.018;5.576;2022-09-09T16:02:26;2.40;;;0.98;;
67819;SDS011;54618;52.018;5.576;2022-09-09T16:04:51;2.97;;;0.90;;
67819;SDS011;54618;52.018;5.576;2022-09-09T16:07:17;2.97;;;1.17;;
67819;SDS011;54618;52.018;5.576;2022-09-09T16:09:43;3.85;;;1.15;;
67819;SDS011;54618;52.018;5.576;2022-09-09T16:12:08;2.88;;;1.00;;
67819;SDS011;54618;52.018;5.576;2022-09-09T16:14:38;2.20;;;1.00;;
67819;SDS011;54618;52.018;5.576;2022-09-09T16:17:03;3.15;;;1.10;;
67819;SDS011;54618;52.018;5.576;2022-09-09T16:19:30;3.75;;;1.20;;
67819;SDS011;54618;52.018;5.576;2022-09-09T16:21:56;3.88;;;1.30;;
67819;SDS011;54618;52.018;5.576;2022-09-09T16:24:21;3.08;;;1.17;;
67819;SDS011;54618;52.018;5.576;2022-09-09T16:26:49;2.70;;;1.02;;
67819;SDS011;54618;52.018;5.576;2022-09-09T16:29:17;3.42;;;1.40;;
67819;SDS011;54618;52.018;5.576;2022-09-09T16:31:43;3.10;;;1.35;;
67819;SDS011;54618;52.018;5.576;2022-09-09T16:34:11;3.63;;;1.20;;
67819;SDS011;54618;52.018;5.576;2022-09-09T16:36:38;5.65;;;1.10;;
67819;SDS011;54618;52.018;5.576;2022-09-09T16:39:06;2.38;;;1.08;;
67819;SDS011;54618;52.018;5.576;2022-09-09T16:41:34;3.08;;;1.23;;
67819;SDS011;54618;52.018;5.576;2022-09-09T16:44:01;1.80;;;1.00;;
67819;SDS011;54618;52.018;5.576;2022-09-09T16:48:59;2.10;;;1.10;;
67819;SDS011;54618;52.018;5.576;2022-09-09T16:51:39;1.73;;;0.90;;
67819;SDS011;54618;52.018;5.576;2022-09-09T16:54:09;3.13;;;1.00;;
67819;SDS011;54618;52.018;5.576;2022-09-09T16:56:37;3.85;;;1.27;;
67819;SDS011;54618;52.018;5.576;2022-09-09T16:59:06;2.17;;;0.93;;
67819;SDS011;54618;52.018;5.576;2022-09-09T17:01:37;2.40;;;1.10;;
67819;SDS011;54618;52.018;5.576;2022-09-09T17:04:06;2.97;;;1.00;;
67819;SDS011;54618;52.018;5.576;2022-09-09T17:06:33;2.97;;;1.00;;
67819;SDS011;54618;52.018;5.576;2022-09-09T17:09:02;2.72;;;1.10;;
67819;SDS011;54618;52.018;5.576;2022-09-09T17:11:32;2.40;;;1.08;;